CheckWX is a tool to help pilots better visualize weather data.  It is not intended as a substitute for an official pre-flight weather briefing.

19:42:15 UTC

KBRL TAF
Southeast Iowa Regional Airport
Burlington, Iowa, USA
KBRL 211726Z 2118/2218 18010KT P6SM -SHRA BKN025 TEMPO 2121/2201 1SM +TSRA BR OVC015CB FM220100 20013G21KT 3SM +SHRA OVC015 FM220300 19012KT 2SM +RA OVC015

Sep-21@
18:00 UTC

Sep-21 @ 18:00 UTC

Sep-22@
01:00 UTC

Sep-22 @ 01:00 UTC

KBRL 211726Z 2118/2218 18010KT P6SM -SHRA BKN025
Wind
  • 180° at 10 KTS
Conditions
Light Rain
Cloud Levels
  • Broken at 2,500' AGL

Sep-21@
21:00 UTC

Sep-21 @ 21:00 UTC

Sep-22@
01:00 UTC

Sep-22 @ 01:00 UTC

TEMPO 2121/2201 1SM +TSRA BR OVC015CB

Temporary

Temporary Changes expected for less than half the time period

Conditions
Heavy Thunderstorm, Heavy Rain, Mist
Cloud Levels
  • Overcast at 1,500' AGL

Sep-22@
01:00 UTC

Sep-22 @ 01:00 UTC

Sep-22@
03:00 UTC

Sep-22 @ 03:00 UTC

FM220100 20013G21KT 3SM +SHRA OVC015

From

From Standard forecast or significant change

Wind
  • 200° at 13 KTS
  • {Gusting to 21 KTS
Conditions
Heavy Rain
Cloud Levels
  • Overcast at 1,500' AGL

Sep-22@
03:00 UTC

Sep-22 @ 03:00 UTC

Sep-22@
18:00 UTC

Sep-22 @ 18:00 UTC

FM220300 19012KT 2SM +RA OVC015

From

From Standard forecast or significant change

Wind
  • 190° at 12 KTS
Conditions
Heavy Rain
Cloud Levels
  • Overcast at 1,500' AGL